Time;durP1;ratioP1;P1;durP2;ratioP2;P2;SDS_P1;SDS_P2;PMS_P1;PMS_P2;Temp;Humidity;BMP_temperature;BMP_pressure;BME280_temperature;BME280_humidity;BME280_pressure;Samples;Min_cycle;Max_cycle;Signal;HPM_P1;HPM_P2
2021/07/07 00:00:40;;;;;;;5.82;4.10;;;;;;;;;;4996175;28;20050;-68
2021/07/07 00:03:07;;;;;;;8.35;4.80;;;;;;;;;;4979305;28;20066;-69
2021/07/07 00:05:33;;;;;;;10.23;6.18;;;;;;;;;;4976779;28;20105;-69
2021/07/07 00:08:00;;;;;;;10.07;6.18;;;;;;;;;;4976974;28;20085;-68
2021/07/07 00:10:32;;;;;;;8.85;5.25;;;;;;;;;;4976924;28;20051;-69
2021/07/07 00:12:59;;;;;;;9.75;4.50;;;;;;;;;;4992304;28;20082;-68
2021/07/07 00:15:31;;;;;;;6.30;4.43;;;;;;;;;;4995911;28;20061;-68
2021/07/07 00:18:03;;;;;;;6.32;4.03;;;;;;;;;;4995989;28;20527;-68
2021/07/07 00:20:39;;;;;;;9.30;3.42;;;;;;;;;;4996039;28;20472;-68
2021/07/07 00:23:06;;;;;;;6.20;2.90;;;;;;;;;;4994769;28;20062;-69
2021/07/07 00:25:33;;;;;;;6.32;3.00;;;;;;;;;;4995643;28;20477;-68
2021/07/07 00:27:59;;;;;;;8.95;3.45;;;;;;;;;;4978356;28;20077;-68
2021/07/07 00:30:27;;;;;;;5.63;2.90;;;;;;;;;;4978536;28;20479;-69
2021/07/07 00:32:55;;;;;;;6.25;2.92;;;;;;;;;;4978418;28;20050;-70
2021/07/07 00:35:21;;;;;;;11.15;3.55;;;;;;;;;;4995462;28;20058;-68
2021/07/07 00:37:48;;;;;;;4.80;2.90;;;;;;;;;;4995772;28;20089;-69
2021/07/07 00:40:15;;;;;;;3.75;2.72;;;;;;;;;;4995552;28;20054;-69
2021/07/07 00:42:42;;;;;;;5.70;3.42;;;;;;;;;;4994286;28;20090;-69
2021/07/07 00:45:09;;;;;;;5.80;3.05;;;;;;;;;;4975984;28;20134;-69
2021/07/07 00:47:36;;;;;;;15.38;3.80;;;;;;;;;;4975749;28;20521;-70
2021/07/07 00:50:04;;;;;;;4.82;3.53;;;;;;;;;;4975642;28;20058;-69
2021/07/07 00:52:31;;;;;;;7.70;4.20;;;;;;;;;;4974124;28;20139;-69
2021/07/07 00:54:57;;;;;;;6.88;3.67;;;;;;;;;;4974475;28;20454;-69
2021/07/07 00:57:27;;;;;;;8.00;3.88;;;;;;;;;;4974484;28;20051;-70
2021/07/07 00:59:55;;;;;;;5.32;3.28;;;;;;;;;;4974957;28;20474;-69
2021/07/07 01:02:22;;;;;;;5.45;3.35;;;;;;;;;;4985378;28;20353;-69
2021/07/07 01:04:49;;;;;;;7.75;3.65;;;;;;;;;;4995379;28;20050;-70
2021/07/07 01:07:15;;;;;;;6.97;3.85;;;;;;;;;;4994882;28;20082;-68
2021/07/07 01:09:42;;;;;;;12.55;4.03;;;;;;;;;;4995134;28;20081;-68
2021/07/07 01:12:09;;;;;;;7.60;3.85;;;;;;;;;;4989388;28;20070;-68
2021/07/07 01:14:35;;;;;;;8.43;3.53;;;;;;;;;;4974191;28;20094;-68
2021/07/07 01:17:02;;;;;;;3.53;3.20;;;;;;;;;;4975219;28;20561;-67
2021/07/07 01:19:29;;;;;;;12.18;5.18;;;;;;;;;;4973933;28;20055;-68
2021/07/07 01:21:55;;;;;;;5.20;3.20;;;;;;;;;;4975540;28;20101;-69
2021/07/07 01:24:22;;;;;;;3.92;3.17;;;;;;;;;;4975041;28;20101;-69
2021/07/07 01:26:49;;;;;;;6.75;3.60;;;;;;;;;;4975121;28;20126;-70
2021/07/07 01:29:16;;;;;;;5.63;3.17;;;;;;;;;;4975016;28;20197;-69
2021/07/07 01:31:43;;;;;;;5.50;3.20;;;;;;;;;;4975484;28;20122;-69
2021/07/07 01:34:10;;;;;;;4.95;3.35;;;;;;;;;;4974807;28;20182;-69
2021/07/07 01:36:37;;;;;;;6.85;4.13;;;;;;;;;;4975021;28;20055;-70
2021/07/07 01:39:05;;;;;;;6.03;3.60;;;;;;;;;;4977382;28;20079;-69
2021/07/07 01:41:32;;;;;;;8.45;4.00;;;;;;;;;;4988981;28;20509;-69
2021/07/07 01:43:58;;;;;;;10.25;3.78;;;;;;;;;;4975124;28;20078;-68
2021/07/07 01:46:25;;;;;;;6.43;3.90;;;;;;;;;;4974871;28;20046;-69
2021/07/07 01:48:52;;;;;;;9.18;4.30;;;;;;;;;;4974741;28;20054;-68
2021/07/07 01:51:19;;;;;;;8.73;4.35;;;;;;;;;;4974410;28;20098;-68
2021/07/07 01:53:46;;;;;;;10.23;4.80;;;;;;;;;;4973590;28;20089;-70
2021/07/07 01:56:13;;;;;;;9.98;4.80;;;;;;;;;;4974413;28;20142;-68
2021/07/07 01:58:39;;;;;;;6.38;4.15;;;;;;;;;;4962658;28;20455;-68
2021/07/07 02:01:06;;;;;;;7.28;4.68;;;;;;;;;;4955031;29;20498;-68
2021/07/07 02:03:33;;;;;;;13.60;4.53;;;;;;;;;;4953878;28;20202;-68
2021/07/07 02:05:59;;;;;;;9.93;4.90;;;;;;;;;;4955355;29;20047;-68
2021/07/07 02:08:26;;;;;;;7.00;3.95;;;;;;;;;;4937661;29;20043;-68
2021/07/07 02:10:53;;;;;;;11.80;5.30;;;;;;;;;;4955012;29;20086;-68
2021/07/07 02:13:19;;;;;;;9.95;4.32;;;;;;;;;;4954339;28;20097;-68
2021/07/07 02:15:48;;;;;;;8.55;4.13;;;;;;;;;;4953862;28;20081;-69
2021/07/07 02:18:15;;;;;;;6.45;4.07;;;;;;;;;;4954758;29;20051;-68
2021/07/07 02:20:46;;;;;;;7.05;4.07;;;;;;;;;;4954861;29;20090;-68
2021/07/07 02:23:13;;;;;;;12.73;4.65;;;;;;;;;;4954622;29;20047;-68
2021/07/07 02:25:44;;;;;;;7.20;4.22;;;;;;;;;;4954995;29;20517;-68
2021/07/07 02:28:14;;;;;;;11.27;4.68;;;;;;;;;;4954587;29;20106;-69
2021/07/07 02:30:42;;;;;;;8.68;4.22;;;;;;;;;;4963160;28;20523;-68
2021/07/07 02:33:09;;;;;;;9.98;4.20;;;;;;;;;;4973597;28;20079;-70
2021/07/07 02:35:38;;;;;;;11.10;4.40;;;;;;;;;;4973779;28;20150;-68
2021/07/07 02:38:06;;;;;;;9.52;4.88;;;;;;;;;;4973731;28;20090;-68
2021/07/07 02:40:34;;;;;;;7.93;5.30;;;;;;;;;;4973797;28;20425;-69
2021/07/07 02:43:01;;;;;;;12.20;5.38;;;;;;;;;;4973661;28;20719;-68
2021/07/07 02:45:29;;;;;;;13.50;5.72;;;;;;;;;;4973701;28;20058;-69
2021/07/07 02:47:57;;;;;;;9.90;5.60;;;;;;;;;;4956464;28;20097;-69
2021/07/07 02:50:24;;;;;;;11.63;5.60;;;;;;;;;;4972402;28;20093;-68
2021/07/07 02:52:51;;;;;;;13.05;6.72;;;;;;;;;;4973641;28;20082;-70
2021/07/07 02:55:20;;;;;;;11.50;5.70;;;;;;;;;;4973355;28;20126;-68
2021/07/07 02:57:56;;;;;;;7.43;4.80;;;;;;;;;;4973533;28;20538;-68
2021/07/07 03:00:35;;;;;;;12.20;6.43;;;;;;;;;;4973326;28;20477;-68
2021/07/07 03:03:13;;;;;;;16.83;7.15;;;;;;;;;;4973242;28;20139;-69
2021/07/07 03:05:43;;;;;;;8.20;5.53;;;;;;;;;;4973283;28;20051;-68
2021/07/07 03:08:11;;;;;;;9.38;6.60;;;;;;;;;;4973030;28;20054;-69
2021/07/07 03:10:41;;;;;;;16.25;7.72;;;;;;;;;;4973334;28;20047;-68
2021/07/07 03:13:08;;;;;;;11.23;5.90;;;;;;;;;;4973035;28;20078;-69
2021/07/07 03:15:38;;;;;;;10.68;6.15;;;;;;;;;;4972028;28;20051;-68
2021/07/07 03:18:06;;;;;;;10.93;5.68;;;;;;;;;;4971903;28;20054;-68
2021/07/07 03:20:33;;;;;;;10.20;6.07;;;;;;;;;;4973132;28;20430;-68
2021/07/07 03:22:59;;;;;;;10.02;5.63;;;;;;;;;;4973127;28;20051;-68
2021/07/07 03:25:26;;;;;;;13.38;6.88;;;;;;;;;;4972052;28;20058;-68
2021/07/07 03:27:53;;;;;;;9.93;6.15;;;;;;;;;;4972963;28;20406;-68
2021/07/07 03:30:19;;;;;;;13.38;6.63;;;;;;;;;;4972928;28;20101;-68
2021/07/07 03:32:46;;;;;;;20.40;7.70;;;;;;;;;;4972740;28;20086;-68
2021/07/07 03:35:13;;;;;;;22.52;8.55;;;;;;;;;;4972751;28;20141;-68
2021/07/07 03:37:40;;;;;;;15.15;7.57;;;;;;;;;;4972943;28;20155;-68
2021/07/07 03:40:08;;;;;;;14.82;7.20;;;;;;;;;;4955626;28;20069;-70
2021/07/07 03:42:34;;;;;;;16.30;7.28;;;;;;;;;;4972922;28;20097;-69
2021/07/07 03:45:01;;;;;;;8.98;6.07;;;;;;;;;;4976156;28;20096;-68
2021/07/07 03:47:29;;;;;;;10.05;5.93;;;;;;;;;;4992283;28;20078;-70
2021/07/07 03:49:55;;;;;;;10.13;4.97;;;;;;;;;;4992252;28;20086;-68
2021/07/07 03:52:22;;;;;;;6.88;4.05;;;;;;;;;;4992167;28;20513;-68
2021/07/07 03:54:48;;;;;;;6.55;3.97;;;;;;;;;;4991109;28;20113;-69
2021/07/07 03:57:15;;;;;;;8.25;4.30;;;;;;;;;;4987381;28;20449;-69
2021/07/07 03:59:43;;;;;;;5.95;4.40;;;;;;;;;;4972729;28;20134;-69
2021/07/07 04:02:09;;;;;;;5.63;3.53;;;;;;;;;;4971216;28;20082;-68
2021/07/07 04:04:36;;;;;;;4.90;3.70;;;;;;;;;;4955615;28;20476;-69
2021/07/07 04:07:03;;;;;;;6.85;3.80;;;;;;;;;;4972663;28;20073;-71
2021/07/07 04:09:30;;;;;;;4.30;3.90;;;;;;;;;;5039013;23;20128;-71
2021/07/07 04:11:57;;;;;;;7.05;3.72;;;;;;;;;;5031352;28;20084;-71
2021/07/07 04:14:24;;;;;;;6.07;3.20;;;;;;;;;;5031224;28;20045;-71
2021/07/07 04:16:51;;;;;;;6.50;3.35;;;;;;;;;;5031386;28;20118;-70
2021/07/07 04:19:19;;;;;;;4.65;3.10;;;;;;;;;;5031218;28;20046;-71
2021/07/07 04:21:46;;;;;;;4.30;3.55;;;;;;;;;;5030920;28;20108;-70
2021/07/07 04:24:13;;;;;;;5.28;3.30;;;;;;;;;;5031250;28;20506;-70
2021/07/07 04:26:40;;;;;;;3.53;2.78;;;;;;;;;;5031264;28;20077;-69
2021/07/07 04:29:07;;;;;;;5.28;2.83;;;;;;;;;;5031188;28;20539;-69
2021/07/07 04:31:34;;;;;;;3.58;2.38;;;;;;;;;;5030421;28;20089;-70
2021/07/07 04:34:01;;;;;;;4.25;2.72;;;;;;;;;;5030784;28;20046;-70
2021/07/07 04:36:28;;;;;;;5.15;2.20;;;;;;;;;;5033196;28;20461;-70
2021/07/07 04:38:55;;;;;;;6.28;2.50;;;;;;;;;;5034879;28;20101;-70
2021/07/07 04:41:22;;;;;;;3.45;2.03;;;;;;;;;;5034414;28;20508;-69
2021/07/07 04:43:48;;;;;;;2.15;1.98;;;;;;;;;;5034839;28;20520;-70
2021/07/07 04:46:16;;;;;;;6.97;2.35;;;;;;;;;;5022200;28;20081;-70
2021/07/07 04:48:44;;;;;;;2.80;2.50;;;;;;;;;;5014685;28;20409;-70
2021/07/07 04:51:11;;;;;;;3.20;2.20;;;;;;;;;;5014663;28;20559;-69
2021/07/07 04:53:42;;;;;;;8.55;2.72;;;;;;;;;;5014971;28;20053;-70
2021/07/07 04:56:09;;;;;;;6.10;2.95;;;;;;;;;;5014578;28;20512;-70
2021/07/07 04:58:41;;;;;;;9.40;2.75;;;;;;;;;;5014871;28;20077;-70
2021/07/07 05:01:08;;;;;;;4.82;2.83;;;;;;;;;;5025350;28;20053;-70
2021/07/07 05:03:34;;;;;;;3.05;2.58;;;;;;;;;;5034968;28;20060;-70
2021/07/07 05:06:01;;;;;;;3.40;2.60;;;;;;;;;;5034916;28;20077;-71
2021/07/07 05:08:28;;;;;;;3.13;2.83;;;;;;;;;;5033993;28;20090;-70
2021/07/07 05:10:54;;;;;;;3.63;2.40;;;;;;;;;;5020097;28;20086;-70
2021/07/07 05:13:21;;;;;;;3.10;2.50;;;;;;;;;;5014344;28;20089;-71
2021/07/07 05:15:48;;;;;;;4.63;2.95;;;;;;;;;;5014363;28;20054;-71
2021/07/07 05:18:15;;;;;;;4.50;2.25;;;;;;;;;;5014422;28;20050;-70
2021/07/07 05:20:41;;;;;;;4.80;2.33;;;;;;;;;;4999528;28;20412;-71
2021/07/07 05:23:08;;;;;;;2.72;2.15;;;;;;;;;;5014019;28;20081;-71
2021/07/07 05:25:35;;;;;;;6.72;2.60;;;;;;;;;;5014379;28;20050;-69
2021/07/07 05:28:02;;;;;;;4.05;2.70;;;;;;;;;;5014010;28;20084;-70
2021/07/07 05:30:30;;;;;;;4.65;2.67;;;;;;;;;;4996542;28;20133;-70
2021/07/07 05:32:57;;;;;;;3.78;2.47;;;;;;;;;;5013856;28;20596;-71
2021/07/07 05:35:24;;;;;;;3.50;2.40;;;;;;;;;;5013968;28;20465;-68
2021/07/07 05:37:50;;;;;;;3.28;2.38;;;;;;;;;;5013985;28;20528;-68
2021/07/07 05:40:18;;;;;;;2.30;2.10;;;;;;;;;;5013773;28;20077;-69
2021/07/07 05:42:50;;;;;;;3.30;2.17;;;;;;;;;;5013659;28;20104;-68
2021/07/07 05:45:18;;;;;;;2.38;2.17;;;;;;;;;;5013585;28;20054;-69
2021/07/07 05:47:44;;;;;;;3.30;2.45;;;;;;;;;;5012887;28;20089;-68
2021/07/07 05:50:13;;;;;;;3.03;2.30;;;;;;;;;;5013370;28;20081;-68
2021/07/07 05:52:40;;;;;;;2.80;2.50;;;;;;;;;;5013736;28;20046;-68
2021/07/07 05:55:07;;;;;;;3.22;2.58;;;;;;;;;;5021647;28;20140;-69
2021/07/07 05:57:39;;;;;;;5.82;2.92;;;;;;;;;;5033407;28;20072;-68
2021/07/07 06:00:12;;;;;;;3.92;2.35;;;;;;;;;;5032646;28;20496;-68
2021/07/07 06:02:39;;;;;;;4.93;2.72;;;;;;;;;;5033214;28;20077;-69
2021/07/07 06:05:07;;;;;;;3.40;2.55;;;;;;;;;;5032981;28;20054;-68
2021/07/07 06:07:34;;;;;;;3.35;2.58;;;;;;;;;;5033468;28;20077;-68
2021/07/07 06:10:02;;;;;;;4.93;2.47;;;;;;;;;;5032684;28;20876;-68
2021/07/07 06:12:28;;;;;;;4.45;2.63;;;;;;;;;;5032980;28;20093;-68
2021/07/07 06:14:55;;;;;;;4.80;2.80;;;;;;;;;;5032903;28;20491;-68
2021/07/07 06:17:22;;;;;;;5.40;3.13;;;;;;;;;;5033361;28;20080;-68
2021/07/07 06:19:49;;;;;;;2.97;2.78;;;;;;;;;;5032823;28;20128;-69
2021/07/07 06:22:15;;;;;;;4.55;3.10;;;;;;;;;;5032770;28;20089;-69
2021/07/07 06:24:42;;;;;;;4.22;2.92;;;;;;;;;;5014935;28;20085;-68
2021/07/07 06:27:08;;;;;;;3.30;3.00;;;;;;;;;;5013033;28;20049;-67
2021/07/07 06:29:35;;;;;;;4.22;3.13;;;;;;;;;;5012934;28;20085;-69
2021/07/07 06:32:02;;;;;;;2.85;2.65;;;;;;;;;;5013006;28;20580;-68
2021/07/07 06:34:28;;;;;;;2.53;2.33;;;;;;;;;;5012825;28;20500;-68
2021/07/07 06:36:55;;;;;;;8.40;2.83;;;;;;;;;;5012842;28;20084;-69
2021/07/07 06:39:22;;;;;;;3.65;2.67;;;;;;;;;;5010192;28;20054;-69
2021/07/07 06:41:48;;;;;;;4.72;2.42;;;;;;;;;;5010711;28;20050;-67
2021/07/07 06:44:15;;;;;;;5.10;2.88;;;;;;;;;;5010839;28;20081;-69
2021/07/07 06:46:42;;;;;;;2.40;2.20;;;;;;;;;;5026976;28;20472;-68
2021/07/07 06:49:08;;;;;;;2.55;2.35;;;;;;;;;;5030152;28;20067;-69
2021/07/07 06:51:35;;;;;;;2.53;1.95;;;;;;;;;;5030309;28;20089;-68
2021/07/07 06:54:02;;;;;;;3.47;1.80;;;;;;;;;;5030357;28;20084;-68
2021/07/07 06:56:28;;;;;;;2.75;2.20;;;;;;;;;;5030128;28;20073;-69
2021/07/07 06:58:55;;;;;;;2.70;2.00;;;;;;;;;;5030021;28;20110;-68
2021/07/07 07:01:21;;;;;;;3.60;2.00;;;;;;;;;;5030215;28;20113;-67
2021/07/07 07:03:48;;;;;;;2.03;1.80;;;;;;;;;;5029876;28;20101;-68
2021/07/07 07:06:14;;;;;;;3.35;2.85;;;;;;;;;;5012656;28;20095;-68
2021/07/07 07:08:41;;;;;;;5.20;2.60;;;;;;;;;;5029861;28;20053;-69
2021/07/07 07:11:08;;;;;;;4.80;3.45;;;;;;;;;;5010374;28;20504;-68
2021/07/07 07:13:34;;;;;;;4.05;2.78;;;;;;;;;;5010217;28;20497;-69
2021/07/07 07:16:02;;;;;;;3.85;2.20;;;;;;;;;;5010202;28;20120;-69
2021/07/07 07:18:28;;;;;;;2.85;1.95;;;;;;;;;;5009542;28;20073;-68
2021/07/07 07:20:56;;;;;;;2.42;1.92;;;;;;;;;;5010031;28;20056;-68
2021/07/07 07:23:22;;;;;;;4.68;2.13;;;;;;;;;;5009571;28;20054;-66
2021/07/07 07:25:49;;;;;;;4.95;2.30;;;;;;;;;;5010273;28;20053;-69
2021/07/07 07:28:16;;;;;;;2.45;2.22;;;;;;;;;;5010119;28;20501;-68
2021/07/07 07:30:42;;;;;;;3.30;2.50;;;;;;;;;;5027896;28;20491;-67
2021/07/07 07:33:09;;;;;;;5.53;2.88;;;;;;;;;;5027859;28;20081;-68
2021/07/07 07:35:36;;;;;;;4.55;2.55;;;;;;;;;;5028222;28;20057;-67
2021/07/07 07:38:09;;;;;;;5.22;2.63;;;;;;;;;;5028858;28;20045;-68
2021/07/07 07:40:41;;;;;;;6.07;2.60;;;;;;;;;;5028288;28;20455;-66
2021/07/07 07:43:09;;;;;;;4.80;2.47;;;;;;;;;;5028133;28;20061;-67
2021/07/07 07:45:37;;;;;;;4.13;2.75;;;;;;;;;;5027760;28;20113;-72
2021/07/07 07:48:07;;;;;;;2.67;1.90;;;;;;;;;;5048003;28;20048;-71
2021/07/07 07:50:34;;;;;;;4.05;2.40;;;;;;;;;;5030411;28;20152;-67
2021/07/07 07:53:00;;;;;;;2.40;1.75;;;;;;;;;;5048109;28;20049;-69
2021/07/07 07:55:27;;;;;;;4.47;2.25;;;;;;;;;;5030222;28;20080;-71
2021/07/07 07:57:54;;;;;;;3.78;2.47;;;;;;;;;;5043999;28;20091;-72
2021/07/07 08:00:22;;;;;;;3.72;2.30;;;;;;;;;;5048182;28;20107;-67
2021/07/07 08:02:49;;;;;;;6.40;3.63;;;;;;;;;;5049835;28;20087;-67
2021/07/07 08:05:17;;;;;;;5.20;3.58;;;;;;;;;;5049768;28;20045;-72
2021/07/07 08:07:45;;;;;;;5.18;3.72;;;;;;;;;;5015925;28;20072;-69
2021/07/07 08:10:13;;;;;;;4.45;3.58;;;;;;;;;;5051384;28;20067;-69
2021/07/07 08:12:40;;;;;;;5.43;3.33;;;;;;;;;;5054107;28;20083;-70
2021/07/07 08:15:07;;;;;;;4.45;2.75;;;;;;;;;;5055186;28;20052;-69
2021/07/07 08:17:34;;;;;;;4.72;2.80;;;;;;;;;;5056586;28;20122;-69
2021/07/07 08:20:01;;;;;;;3.67;2.80;;;;;;;;;;5055465;28;20285;-69
2021/07/07 08:22:27;;;;;;;6.60;2.67;;;;;;;;;;5055182;28;20190;-69
2021/07/07 08:24:54;;;;;;;4.15;2.08;;;;;;;;;;5056267;28;20103;-69
2021/07/07 08:27:21;;;;;;;7.57;1.98;;;;;;;;;;5055008;28;20045;-70
2021/07/07 08:29:47;;;;;;;4.57;2.05;;;;;;;;;;5053806;28;20045;-68
2021/07/07 08:32:14;;;;;;;4.07;2.10;;;;;;;;;;5052068;28;20102;-69
2021/07/07 08:34:40;;;;;;;3.28;2.00;;;;;;;;;;5052622;28;20084;-68
2021/07/07 08:37:07;;;;;;;5.72;1.88;;;;;;;;;;5054361;28;20412;-69
2021/07/07 08:39:33;;;;;;;3.70;2.05;;;;;;;;;;5053915;28;20474;-69
2021/07/07 08:42:00;;;;;;;2.70;1.70;;;;;;;;;;5053760;28;20049;-69
2021/07/07 08:44:27;;;;;;;2.97;2.00;;;;;;;;;;5053552;28;20048;-69
2021/07/07 08:46:54;;;;;;;4.97;1.95;;;;;;;;;;5051351;28;20049;-69
2021/07/07 08:49:21;;;;;;;2.75;1.95;;;;;;;;;;5052710;28;20457;-69
2021/07/07 08:51:48;;;;;;;3.40;1.90;;;;;;;;;;5053278;28;20084;-69
2021/07/07 08:54:17;;;;;;;6.95;2.05;;;;;;;;;;5053332;28;20056;-69
2021/07/07 08:56:45;;;;;;;3.92;1.70;;;;;;;;;;5030509;28;20084;-69
2021/07/07 08:59:13;;;;;;;3.58;2.13;;;;;;;;;;5052040;28;20069;-69
2021/07/07 09:01:59;;;;;;;4.15;1.85;;;;;;;;;;5052789;28;20084;-69
2021/07/07 09:04:42;;;;;;;4.25;1.92;;;;;;;;;;5049049;28;20048;-69
2021/07/07 09:07:11;;;;;;;1.65;1.45;;;;;;;;;;5051862;28;20422;-68
2021/07/07 09:09:39;;;;;;;2.50;1.40;;;;;;;;;;5052649;28;20069;-68
2021/07/07 09:12:24;;;;;;;3.58;1.48;;;;;;;;;;5052872;28;20124;-69
2021/07/07 09:14:59;;;;;;;3.60;1.42;;;;;;;;;;5051435;28;20080;-67
2021/07/07 09:17:25;;;;;;;4.03;1.30;;;;;;;;;;5036561;28;20095;-69
2021/07/07 09:19:52;;;;;;;3.03;1.50;;;;;;;;;;5052614;28;20072;-69
2021/07/07 09:22:23;;;;;;;3.83;1.50;;;;;;;;;;5051423;28;20586;-68
2021/07/07 09:25:04;;;;;;;2.78;1.30;;;;;;;;;;5052819;28;20076;-68
2021/07/07 09:27:36;;;;;;;5.80;1.63;;;;;;;;;;5060759;28;20072;-70
2021/07/07 09:30:08;;;;;;;2.58;1.50;;;;;;;;;;5052423;28;20077;-68
2021/07/07 09:32:43;;;;;;;4.28;1.60;;;;;;;;;;5051939;28;20605;-69
2021/07/07 09:35:10;;;;;;;2.03;0.98;;;;;;;;;;5050835;28;20063;-69
2021/07/07 09:37:44;;;;;;;3.03;1.55;;;;;;;;;;5052284;28;20076;-68
2021/07/07 09:40:12;;;;;;;3.97;1.60;;;;;;;;;;5051933;28;20075;-68
2021/07/07 09:42:41;;;;;;;3.10;1.63;;;;;;;;;;5051590;28;20503;-68
2021/07/07 09:45:09;;;;;;;7.15;2.20;;;;;;;;;;5052152;28;20084;-69
2021/07/07 09:47:36;;;;;;;3.25;1.60;;;;;;;;;;5052641;28;20076;-65
2021/07/07 09:50:04;;;;;;;1.65;1.17;;;;;;;;;;5051899;28;20045;-65
2021/07/07 09:52:31;;;;;;;4.13;1.30;;;;;;;;;;5052031;28;20136;-65
2021/07/07 09:55:01;;;;;;;6.22;1.63;;;;;;;;;;5051677;28;20057;-65
2021/07/07 09:57:28;;;;;;;2.88;0.90;;;;;;;;;;5050550;28;20091;-64
2021/07/07 09:59:54;;;;;;;3.53;1.30;;;;;;;;;;5052352;28;20040;-74
2021/07/07 10:02:21;;;;;;;3.25;1.55;;;;;;;;;;5052268;28;20080;-72
2021/07/07 10:04:47;;;;;;;4.53;1.33;;;;;;;;;;5051051;28;20057;-75
2021/07/07 10:07:14;;;;;;;3.20;1.20;;;;;;;;;;5028862;28;20072;-73
2021/07/07 10:09:45;;;;;;;1.48;1.10;;;;;;;;;;5013231;28;20428;-75
2021/07/07 10:12:12;;;;;;;1.45;0.98;;;;;;;;;;5055447;28;20088;-65
2021/07/07 10:14:38;;;;;;;4.28;1.15;;;;;;;;;;5051074;28;20053;-67
2021/07/07 10:17:05;;;;;;;1.95;1.17;;;;;;;;;;5050505;28;20053;-67
2021/07/07 10:19:32;;;;;;;3.33;1.30;;;;;;;;;;5047937;28;20056;-72
2021/07/07 10:21:59;;;;;;;4.20;1.35;;;;;;;;;;5034150;28;20088;-67
2021/07/07 10:24:29;;;;;;;3.67;1.40;;;;;;;;;;5046004;28;20048;-67
2021/07/07 10:26:57;;;;;;;2.65;1.73;;;;;;;;;;5031523;28;20113;-67
2021/07/07 10:29:25;;;;;;;2.60;1.40;;;;;;;;;;5014812;28;20503;-68
2021/07/07 10:31:57;;;;;;;4.45;1.45;;;;;;;;;;5030447;28;20044;-68
2021/07/07 10:34:26;;;;;;;1.83;1.02;;;;;;;;;;5044110;28;20057;-67
2021/07/07 10:36:56;;;;;;;4.20;2.20;;;;;;;;;;5047325;28;20087;-66
2021/07/07 10:39:23;;;;;;;2.75;1.05;;;;;;;;;;5047403;28;20482;-67
2021/07/07 10:41:52;;;;;;;3.67;1.30;;;;;;;;;;5028860;28;20073;-67
2021/07/07 10:44:22;;;;;;;1.73;1.00;;;;;;;;;;5048385;28;20672;-67
2021/07/07 10:47:12;;;;;;;2.20;0.90;;;;;;;;;;5044334;28;20068;-67
2021/07/07 10:49:39;;;;;;;3.97;1.20;;;;;;;;;;5045375;28;20144;-67
2021/07/07 10:52:08;;;;;;;2.38;1.13;;;;;;;;;;5022878;28;20040;-66
2021/07/07 10:54:40;;;;;;;2.17;0.90;;;;;;;;;;5049151;28;20076;-67
2021/07/07 10:57:08;;;;;;;4.40;1.13;;;;;;;;;;5048719;28;20473;-67
2021/07/07 10:59:35;;;;;;;2.95;1.20;;;;;;;;;;5048728;28;20459;-67
2021/07/07 11:02:09;;;;;;;2.60;1.27;;;;;;;;;;5048680;28;20481;-66
2021/07/07 11:04:39;;;;;;;2.92;1.10;;;;;;;;;;5047429;28;20061;-67
2021/07/07 11:07:41;;;;;;;3.13;1.42;;;;;;;;;;5048797;28;20049;-66
2021/07/07 11:10:17;;;;;;;3.20;0.88;;;;;;;;;;4973081;28;20062;-67
2021/07/07 11:12:44;;;;;;;1.40;0.90;;;;;;;;;;5040296;28;20077;-67
2021/07/07 11:15:14;;;;;;;3.40;0.90;;;;;;;;;;5047809;28;20076;-65
2021/07/07 11:17:41;;;;;;;2.30;0.85;;;;;;;;;;5044838;28;20084;-65
2021/07/07 11:20:12;;;;;;;3.25;1.17;;;;;;;;;;5045149;28;20136;-75
2021/07/07 11:22:41;;;;;;;1.98;0.80;;;;;;;;;;5030256;28;20088;-73
2021/07/07 11:25:10;;;;;;;2.60;0.70;;;;;;;;;;5028778;28;20084;-72
2021/07/07 11:27:40;;;;;;;3.38;1.10;;;;;;;;;;5027979;28;20057;-73
2021/07/07 11:30:12;;;;;;;1.27;0.80;;;;;;;;;;5030228;28;20041;-77
2021/07/07 11:32:43;;;;;;;1.90;0.85;;;;;;;;;;5031659;28;20083;-76
2021/07/07 11:35:14;;;;;;;5.68;1.27;;;;;;;;;;5016392;28;20040;-74
2021/07/07 11:37:41;;;;;;;4.70;1.38;;;;;;;;;;5049551;28;20079;-71
2021/07/07 11:40:17;;;;;;;2.33;1.30;;;;;;;;;;5043381;28;20064;-72
2021/07/07 11:43:01;;;;;;;3.15;1.05;;;;;;;;;;5030258;28;20549;-76
2021/07/07 11:45:36;;;;;;;2.85;1.20;;;;;;;;;;5047916;28;20059;-67
2021/07/07 11:48:10;;;;;;;2.45;1.00;;;;;;;;;;5048867;28;20057;-67
2021/07/07 11:50:41;;;;;;;2.10;1.58;;;;;;;;;;5048544;28;20087;-68
2021/07/07 11:53:08;;;;;;;5.30;1.30;;;;;;;;;;5045727;28;20077;-67
2021/07/07 11:55:41;;;;;;;2.35;1.30;;;;;;;;;;5048881;28;20081;-70
2021/07/07 11:58:09;;;;;;;1.77;1.02;;;;;;;;;;5077103;22;20071;-68
2021/07/07 12:00:39;;;;;;;3.08;1.42;;;;;;;;;;4989443;28;20469;-67
2021/07/07 12:03:05;;;;;;;2.78;1.45;;;;;;;;;;5007788;28;20415;-67
2021/07/07 12:05:56;;;;;;;2.55;1.33;;;;;;;;;;5009806;28;20046;-68
2021/07/07 12:08:27;;;;;;;2.78;1.42;;;;;;;;;;5009729;28;20123;-67
2021/07/07 12:11:03;;;;;;;2.30;1.05;;;;;;;;;;5009727;28;20125;-67
2021/07/07 12:13:30;;;;;;;1.83;1.30;;;;;;;;;;5009470;28;20508;-67
2021/07/07 12:16:15;;;;;;;3.00;1.30;;;;;;;;;;5009941;28;20411;-67
2021/07/07 12:18:53;;;;;;;2.20;1.10;;;;;;;;;;5008608;28;20054;-67
2021/07/07 12:21:22;;;;;;;2.55;1.10;;;;;;;;;;5009255;28;20105;-68
2021/07/07 12:23:53;;;;;;;2.92;1.20;;;;;;;;;;5010179;28;20130;-68
2021/07/07 12:26:25;;;;;;;1.53;1.07;;;;;;;;;;5008688;28;20081;-69
2021/07/07 12:28:56;;;;;;;1.30;0.98;;;;;;;;;;5010218;28;20077;-68
2021/07/07 12:31:30;;;;;;;2.57;1.10;;;;;;;;;;4989956;28;20081;-67
2021/07/07 12:33:57;;;;;;;1.35;1.10;;;;;;;;;;5010234;28;20096;-67
2021/07/07 12:36:30;;;;;;;0.95;0.70;;;;;;;;;;4976837;28;20556;-67
2021/07/07 12:38:59;;;;;;;2.30;0.80;;;;;;;;;;4992489;28;20088;-68
2021/07/07 12:41:33;;;;;;;0.70;0.60;;;;;;;;;;4992560;28;20081;-68
2021/07/07 12:44:12;;;;;;;2.70;0.80;;;;;;;;;;5007327;28;20136;-67
2021/07/07 12:46:57;;;;;;;1.05;0.75;;;;;;;;;;5010497;28;20057;-68
2021/07/07 12:49:41;;;;;;;1.10;0.73;;;;;;;;;;5010118;28;20119;-67
2021/07/07 12:52:13;;;;;;;0.85;0.73;;;;;;;;;;5010106;28;20129;-68
2021/07/07 12:54:40;;;;;;;2.03;0.90;;;;;;;;;;5007151;28;20084;-68
2021/07/07 12:57:06;;;;;;;2.30;0.98;;;;;;;;;;4994665;28;20084;-68
2021/07/07 12:59:33;;;;;;;2.80;0.90;;;;;;;;;;4995645;28;20107;-68
2021/07/07 13:02:06;;;;;;;1.75;0.88;;;;;;;;;;5013477;28;20084;-68
2021/07/07 13:04:33;;;;;;;0.75;0.75;;;;;;;;;;5013601;28;20057;-67
2021/07/07 13:07:08;;;;;;;3.33;1.08;;;;;;;;;;4996850;28;20058;-68
2021/07/07 13:09:36;;;;;;;1.75;0.80;;;;;;;;;;5012674;28;20050;-68
2021/07/07 13:12:05;;;;;;;3.38;1.00;;;;;;;;;;5013122;28;20081;-68
2021/07/07 13:14:32;;;;;;;1.27;0.95;;;;;;;;;;5012795;28;20084;-68
2021/07/07 13:16:58;;;;;;;1.48;0.93;;;;;;;;;;5012945;28;20097;-67
2021/07/07 13:19:29;;;;;;;0.68;0.63;;;;;;;;;;5013096;28;20105;-68
2021/07/07 13:22:06;;;;;;;1.27;0.77;;;;;;;;;;5013127;28;20484;-68
2021/07/07 13:24:38;;;;;;;0.55;0.55;;;;;;;;;;5012863;28;20085;-68
2021/07/07 13:27:08;;;;;;;1.52;0.57;;;;;;;;;;5012350;28;20077;-67
2021/07/07 13:29:39;;;;;;;1.33;0.70;;;;;;;;;;5013116;28;20088;-67
2021/07/07 13:32:14;;;;;;;1.75;0.60;;;;;;;;;;5010956;28;20477;-68
2021/07/07 13:34:42;;;;;;;2.45;1.00;;;;;;;;;;5012877;28;20226;-68
2021/07/07 13:37:10;;;;;;;1.55;0.90;;;;;;;;;;5009270;28;20489;-68
2021/07/07 13:39:37;;;;;;;2.92;0.68;;;;;;;;;;5012964;28;20144;-68
2021/07/07 13:42:04;;;;;;;0.93;0.63;;;;;;;;;;5012442;28;20054;-67
2021/07/07 13:44:31;;;;;;;1.90;0.90;;;;;;;;;;5012758;28;20147;-68
2021/07/07 13:46:57;;;;;;;1.05;0.75;;;;;;;;;;5009896;28;20516;-70
2021/07/07 13:49:24;;;;;;;0.70;0.70;;;;;;;;;;5010759;28;20547;-71
2021/07/07 13:51:50;;;;;;;1.90;0.70;;;;;;;;;;5011904;28;20089;-70
2021/07/07 13:54:17;;;;;;;1.55;0.50;;;;;;;;;;5009493;28;20050;-71
2021/07/07 13:56:44;;;;;;;0.73;0.60;;;;;;;;;;5012069;28;20757;-71
2021/07/07 13:59:10;;;;;;;1.17;0.70;;;;;;;;;;5011534;28;20077;-71
2021/07/07 14:01:38;;;;;;;0.85;0.70;;;;;;;;;;5011529;28;20042;-70
2021/07/07 14:04:04;;;;;;;1.15;0.77;;;;;;;;;;5011720;28;20145;-70
2021/07/07 14:06:31;;;;;;;0.68;0.55;;;;;;;;;;5011313;28;20423;-70
2021/07/07 14:08:58;;;;;;;2.25;0.63;;;;;;;;;;5010745;28;20085;-70
2021/07/07 14:11:25;;;;;;;0.50;0.50;;;;;;;;;;5011029;28;20088;-70
2021/07/07 14:13:51;;;;;;;1.05;0.50;;;;;;;;;;5011160;28;20085;-65
2021/07/07 14:16:18;;;;;;;2.20;1.10;;;;;;;;;;5008795;28;20100;-65
2021/07/07 14:18:45;;;;;;;1.38;0.70;;;;;;;;;;5006890;28;20053;-66
2021/07/07 14:21:12;;;;;;;1.45;0.60;;;;;;;;;;5010121;28;20136;-65
2021/07/07 14:23:38;;;;;;;0.70;0.50;;;;;;;;;;5010994;28;20572;-66
2021/07/07 14:26:05;;;;;;;0.95;0.50;;;;;;;;;;5011098;28;20130;-64
2021/07/07 14:28:31;;;;;;;3.13;0.60;;;;;;;;;;5010506;28;20087;-63
2021/07/07 14:30:58;;;;;;;1.92;0.55;;;;;;;;;;4993059;28;20088;-63
2021/07/07 14:33:24;;;;;;;0.57;0.57;;;;;;;;;;4993075;28;20084;-63
2021/07/07 14:35:51;;;;;;;1.55;0.60;;;;;;;;;;5008754;28;20512;-63
2021/07/07 14:38:18;;;;;;;2.75;0.65;;;;;;;;;;5010880;28;20528;-63
2021/07/07 14:40:44;;;;;;;0.82;0.60;;;;;;;;;;5006418;28;20081;-63
2021/07/07 14:43:11;;;;;;;0.68;0.60;;;;;;;;;;5004880;28;20089;-63
2021/07/07 14:45:37;;;;;;;1.00;0.55;;;;;;;;;;5003653;28;20548;-63
2021/07/07 14:50:39;;;;;;;0.82;0.60;;;;;;;;;;5196347;22;20286;-66